createdAt,value
2023-10-21T00:02:18.557Z,20.92
2023-10-21T00:05:20.270Z,20.83
2023-10-21T00:08:21.899Z,20.79
2023-10-21T00:11:23.438Z,20.81
2023-10-21T00:14:24.978Z,20.78
2023-10-21T00:17:27.505Z,20.88
2023-10-21T00:20:29.121Z,20.84
2023-10-21T00:23:31.116Z,20.84
2023-10-21T00:26:43.472Z,20.86
2023-10-21T00:29:45.130Z,20.79
2023-10-21T00:32:46.735Z,20.73
2023-10-21T00:35:48.489Z,20.71
2023-10-21T00:38:50.212Z,20.71
2023-10-21T00:41:51.780Z,20.76
2023-10-21T00:44:53.398Z,20.81
2023-10-21T00:47:55.027Z,20.76
2023-10-21T00:50:56.741Z,20.70
2023-10-21T00:53:59.489Z,20.80
2023-10-21T00:57:01.181Z,20.66
2023-10-21T01:00:02.917Z,20.71
2023-10-21T01:03:05.016Z,20.64
2023-10-21T01:06:06.845Z,20.67
2023-10-21T01:09:08.760Z,20.62
2023-10-21T01:12:10.411Z,20.64
2023-10-21T01:15:13.231Z,20.67
2023-10-21T01:18:15.074Z,20.83
2023-10-21T01:21:16.782Z,20.86
2023-10-21T01:24:18.454Z,20.81
2023-10-21T01:27:20.022Z,20.88
2023-10-21T01:30:21.973Z,21.00
2023-10-21T01:33:23.784Z,21.02
2023-10-21T01:36:25.407Z,20.93
2023-10-21T01:39:27.017Z,20.95
2023-10-21T01:42:28.626Z,21.06
2023-10-21T01:45:30.236Z,21.15
2023-10-21T01:48:31.888Z,21.13
2023-10-21T01:51:33.506Z,21.08
2023-10-21T01:54:35.057Z,21.10
2023-10-21T01:57:36.990Z,21.08
2023-10-21T02:00:39.010Z,21.01
2023-10-21T02:03:41.544Z,20.92
2023-10-21T02:06:43.284Z,20.86
2023-10-21T02:09:44.822Z,20.85
2023-10-21T02:12:46.457Z,20.93
2023-10-21T02:15:48.075Z,20.91
2023-10-21T02:18:50.000Z,20.89
2023-10-21T02:21:51.855Z,20.95
2023-10-21T02:24:54.645Z,20.96
2023-10-21T02:27:56.200Z,21.00
2023-10-21T02:30:58.443Z,20.97
2023-10-21T02:34:00.078Z,21.06
2023-10-21T02:37:01.719Z,21.03
2023-10-21T02:40:05.025Z,20.99
2023-10-21T02:43:06.837Z,20.99
2023-10-21T02:46:12.382Z,21.02
2023-10-21T02:49:13.997Z,21.02
2023-10-21T02:52:15.518Z,20.97
2023-10-21T02:55:17.097Z,20.88
2023-10-21T02:58:18.638Z,20.79
2023-10-21T03:01:21.176Z,20.80
2023-10-21T03:04:22.789Z,20.95
2023-10-21T03:07:24.330Z,20.81
2023-10-21T03:10:26.044Z,20.73
2023-10-21T03:13:27.614Z,20.69
2023-10-21T03:16:29.269Z,20.64
2023-10-21T03:19:30.832Z,20.59
2023-10-21T03:22:32.338Z,20.65
2023-10-21T03:25:34.616Z,20.58
2023-10-21T03:28:37.407Z,20.62
2023-10-21T03:31:38.995Z,20.61
2023-10-21T03:34:40.558Z,20.59
2023-10-21T03:37:42.344Z,20.55
2023-10-21T03:40:43.912Z,20.52
2023-10-21T03:43:45.437Z,20.41
2023-10-21T03:46:47.037Z,20.56
2023-10-21T03:49:48.593Z,20.47
2023-10-21T03:52:50.121Z,20.35
2023-10-21T03:55:51.651Z,20.38
2023-10-21T03:58:53.171Z,20.38
2023-10-21T04:01:54.700Z,20.28
2023-10-21T04:04:56.250Z,20.26
2023-10-21T04:07:58.031Z,20.18
2023-10-21T04:11:00.492Z,20.29
2023-10-21T04:14:02.262Z,20.30
2023-10-21T04:17:04.270Z,20.38
2023-10-21T04:20:06.323Z,20.37
2023-10-21T04:23:08.005Z,20.33
2023-10-21T04:26:09.796Z,20.33
2023-10-21T04:29:11.313Z,20.31
2023-10-21T04:32:12.943Z,20.34
2023-10-21T04:35:14.545Z,20.29
2023-10-21T04:38:16.164Z,20.31
2023-10-21T04:41:17.726Z,20.31
2023-10-21T04:44:19.518Z,20.29
2023-10-21T04:47:21.418Z,20.29
2023-10-21T04:50:23.750Z,20.26
2023-10-21T04:53:26.740Z,20.15
2023-10-21T04:56:28.308Z,20.22
2023-10-21T04:59:30.080Z,20.20
2023-10-21T05:02:31.648Z,20.21
2023-10-21T05:05:35.986Z,20.07
2023-10-21T05:08:37.693Z,20.06
2023-10-21T05:11:39.330Z,20.01
2023-10-21T05:14:40.904Z,19.63
2023-10-21T05:17:42.529Z,19.47
2023-10-21T05:20:44.094Z,19.33
2023-10-21T05:23:45.640Z,19.09
2023-10-21T05:26:47.223Z,19.22
2023-10-21T05:29:48.847Z,19.28
2023-10-21T05:32:50.708Z,19.37
2023-10-21T05:35:52.399Z,19.46
2023-10-21T05:38:55.260Z,19.52
2023-10-21T05:41:56.944Z,19.64
2023-10-21T05:44:58.846Z,19.69
2023-10-21T05:48:00.480Z,19.84
2023-10-21T05:51:02.779Z,19.85
2023-10-21T05:54:04.482Z,19.84
2023-10-21T05:57:06.161Z,19.80
2023-10-21T06:00:08.624Z,19.83
2023-10-21T06:03:10.877Z,19.76
2023-10-21T06:06:12.680Z,19.76
2023-10-21T06:09:14.397Z,19.86
2023-10-21T06:12:16.401Z,19.83
2023-10-21T06:15:18.025Z,19.86
2023-10-21T06:18:19.826Z,19.81
2023-10-21T06:21:21.510Z,19.72
2023-10-21T06:24:23.158Z,19.80
2023-10-21T06:27:24.826Z,19.88
2023-10-21T06:30:27.259Z,19.90
2023-10-21T06:33:29.052Z,20.01
2023-10-21T06:36:30.770Z,20.03
2023-10-21T06:39:32.869Z,19.96
2023-10-21T06:42:34.623Z,20.26
2023-10-21T06:45:39.877Z,20.05
2023-10-21T06:48:41.748Z,19.95
2023-10-21T06:51:43.303Z,20.12
2023-10-21T06:54:45.086Z,19.98
2023-10-21T06:57:46.629Z,20.19
2023-10-21T07:00:48.300Z,20.06
2023-10-21T07:03:50.549Z,20.23
2023-10-21T07:06:52.188Z,20.23
2023-10-21T07:09:53.742Z,20.11
2023-10-21T07:12:55.267Z,20.44
2023-10-21T07:15:56.779Z,20.47
2023-10-21T07:18:58.421Z,20.42
2023-10-21T07:21:59.963Z,20.58
2023-10-21T07:25:01.731Z,20.58
2023-10-21T07:28:03.899Z,20.79
2023-10-21T07:31:06.110Z,20.76
2023-10-21T07:34:07.673Z,20.98
2023-10-21T07:37:09.294Z,20.74
2023-10-21T07:40:11.284Z,20.90
2023-10-21T07:43:13.050Z,21.13
2023-10-21T07:46:14.652Z,21.28
2023-10-21T07:49:16.185Z,21.37
2023-10-21T07:52:18.072Z,21.56
2023-10-21T07:55:19.573Z,21.83
2023-10-21T07:58:21.154Z,21.80
2023-10-21T08:01:23.356Z,21.81
2023-10-21T08:04:25.194Z,22.13
2023-10-21T08:07:26.804Z,22.93
2023-10-21T08:10:29.461Z,24.48
2023-10-21T08:13:31.117Z,25.69
2023-10-21T08:16:32.727Z,25.70
2023-10-21T08:19:34.388Z,24.33
2023-10-21T08:22:35.934Z,23.69
2023-10-21T08:25:37.769Z,23.62
2023-10-21T08:28:39.321Z,23.17
2023-10-21T08:31:41.040Z,23.30
2023-10-21T08:34:42.964Z,22.83
2023-10-21T08:40:48.338Z,22.63
2023-10-21T08:43:50.875Z,21.77
2023-10-21T08:46:55.713Z,21.90
2023-10-21T08:49:57.685Z,21.76
2023-10-21T08:53:01.697Z,21.56
2023-10-21T08:56:03.337Z,21.48
2023-10-21T08:59:05.040Z,21.53
2023-10-21T09:02:07.023Z,21.97
2023-10-21T09:05:12.312Z,21.93
2023-10-21T09:08:16.420Z,22.06
2023-10-21T09:11:19.578Z,21.66
2023-10-21T09:14:21.093Z,21.48
2023-10-21T09:17:25.429Z,21.40
2023-10-21T09:20:27.114Z,21.22
2023-10-21T09:23:28.654Z,21.30
2023-10-21T09:26:34.185Z,21.02
2023-10-21T09:29:37.879Z,20.93
2023-10-21T09:32:39.525Z,21.03
2023-10-21T09:35:41.139Z,20.99
2023-10-21T09:38:42.736Z,20.86
2023-10-21T09:41:44.376Z,20.73
2023-10-21T09:44:46.218Z,20.38
2023-10-21T09:47:47.785Z,20.20
2023-10-21T09:50:52.587Z,20.36
2023-10-21T09:53:57.541Z,20.67
2023-10-21T09:57:00.390Z,21.26
2023-10-21T10:00:03.871Z,21.23
2023-10-21T10:03:06.710Z,21.40
2023-10-21T10:06:08.729Z,21.49
2023-10-21T10:09:10.645Z,21.36
2023-10-21T10:12:18.291Z,21.17
2023-10-21T10:15:33.339Z,21.49
2023-10-21T10:18:46.965Z,21.99
2023-10-21T10:21:53.214Z,22.83
2023-10-21T10:25:06.306Z,23.81
2023-10-21T10:28:18.546Z,24.79
2023-10-21T10:31:22.239Z,30.23
2023-10-21T10:34:23.837Z,29.75
2023-10-21T10:37:26.067Z,27.01
2023-10-21T10:40:35.182Z,26.87
2023-10-21T10:43:39.878Z,25.26
2023-10-21T10:46:42.367Z,24.63
2023-10-21T10:49:59.750Z,24.18
2023-10-21T10:53:11.535Z,24.02
2023-10-21T10:56:20.628Z,23.72
2023-10-21T10:59:25.045Z,24.33
2023-10-21T11:02:29.998Z,25.64
2023-10-21T11:05:31.982Z,27.68
2023-10-21T11:08:33.479Z,27.21
2023-10-21T11:11:47.670Z,26.36
2023-10-21T11:14:52.839Z,25.30
2023-10-21T11:17:55.147Z,24.73
2023-10-21T11:20:58.311Z,25.02
2023-10-21T11:24:03.376Z,24.22
2023-10-21T11:27:07.288Z,23.99
2023-10-21T11:30:10.041Z,23.72
2023-10-21T11:33:11.830Z,22.88
2023-10-21T11:36:15.538Z,22.65
2023-10-21T11:39:19.159Z,22.72
2023-10-21T11:42:20.890Z,22.17
2023-10-21T11:45:22.914Z,21.74
2023-10-21T11:48:27.408Z,21.96
2023-10-21T11:51:30.698Z,21.77
2023-10-21T11:54:32.390Z,21.59
2023-10-21T11:57:53.106Z,21.62
2023-10-21T12:01:02.574Z,21.41
2023-10-21T12:04:42.522Z,21.47
2023-10-21T12:07:49.887Z,21.40
2023-10-21T12:10:57.271Z,21.13
2023-10-21T12:14:10.785Z,21.11
2023-10-21T12:17:21.259Z,21.06
2023-10-21T12:20:22.806Z,21.22
2023-10-21T12:23:33.564Z,20.82
2023-10-21T12:26:40.958Z,20.70
2023-10-21T12:29:51.450Z,20.72
2023-10-21T12:33:11.970Z,20.61
2023-10-21T12:36:28.680Z,20.39
2023-10-21T12:39:48.177Z,20.36
2023-10-21T12:43:09.693Z,20.16
2023-10-21T12:46:20.045Z,19.99
2023-10-21T12:49:26.667Z,20.00
2023-10-21T12:52:30.547Z,19.84
2023-10-21T12:55:33.793Z,19.85
2023-10-21T12:58:35.316Z,19.88
2023-10-21T13:01:39.481Z,20.06
2023-10-21T13:04:44.566Z,19.74
2023-10-21T13:07:46.256Z,19.88
2023-10-21T13:10:49.096Z,19.68
2023-10-21T13:13:53.790Z,19.79
2023-10-21T13:16:55.405Z,19.73
2023-10-21T13:19:56.957Z,19.83
2023-10-21T13:22:58.574Z,19.83
2023-10-21T13:26:00.240Z,19.94
2023-10-21T13:29:01.776Z,19.89
2023-10-21T13:32:04.479Z,19.90
2023-10-21T13:35:12.233Z,19.75
2023-10-21T13:38:15.117Z,19.74
2023-10-21T13:41:18.550Z,19.61
2023-10-21T13:44:21.950Z,19.64
2023-10-21T13:47:23.501Z,19.61
2023-10-21T13:50:26.108Z,19.62
2023-10-21T13:53:28.533Z,19.55
2023-10-21T13:56:30.093Z,19.52
2023-10-21T13:59:31.621Z,19.58
2023-10-21T14:02:33.242Z,19.55
2023-10-21T14:05:35.059Z,19.43
2023-10-21T14:08:36.596Z,18.94
2023-10-21T14:11:38.112Z,18.60
2023-10-21T14:14:39.665Z,18.34
2023-10-21T14:17:41.231Z,18.30
2023-10-21T14:20:42.960Z,18.48
2023-10-21T14:23:44.477Z,18.25
2023-10-21T14:26:46.333Z,18.23
2023-10-21T14:29:47.886Z,18.23
2023-10-21T14:32:49.547Z,18.30
2023-10-21T14:35:52.442Z,18.27
2023-10-21T14:38:54.006Z,18.24
2023-10-21T14:41:55.597Z,18.06
2023-10-21T14:44:58.590Z,18.09
2023-10-21T14:48:00.314Z,17.80
2023-10-21T14:51:02.422Z,17.84
2023-10-21T14:54:05.271Z,17.61
2023-10-21T14:57:08.357Z,17.68
2023-10-21T15:00:17.065Z,17.51
2023-10-21T15:03:21.767Z,17.66
2023-10-21T15:06:24.039Z,17.51
2023-10-21T15:09:26.193Z,17.37
2023-10-21T15:12:27.944Z,17.57
2023-10-21T15:15:29.537Z,17.31
2023-10-21T15:18:34.028Z,17.42
2023-10-21T15:21:35.681Z,17.36
2023-10-21T15:24:37.457Z,17.15
2023-10-21T15:27:42.936Z,17.09
2023-10-21T15:30:44.556Z,17.08
2023-10-21T15:33:46.235Z,16.92
2023-10-21T15:36:53.058Z,17.00
2023-10-21T15:39:57.063Z,17.06
2023-10-21T15:42:58.618Z,17.07
2023-10-21T15:46:00.927Z,17.00
2023-10-21T15:49:03.030Z,16.97
2023-10-21T15:52:05.032Z,17.01
2023-10-21T15:55:07.105Z,17.08
2023-10-21T15:58:08.696Z,17.02
2023-10-21T16:01:10.456Z,17.08
2023-10-21T16:04:13.053Z,17.01
2023-10-21T16:07:15.939Z,17.04
2023-10-21T16:10:17.759Z,17.10
2023-10-21T16:13:19.493Z,17.06
2023-10-21T16:16:21.396Z,17.09
2023-10-21T16:19:23.821Z,17.26
2023-10-21T16:22:25.600Z,17.22
2023-10-21T16:25:27.646Z,17.29
2023-10-21T16:28:29.629Z,17.22
2023-10-21T16:31:32.849Z,17.23
2023-10-21T16:34:34.998Z,17.23
2023-10-21T16:37:37.444Z,16.68
2023-10-21T16:40:39.596Z,16.79
2023-10-21T16:43:41.803Z,16.87
2023-10-21T16:46:44.194Z,16.88
2023-10-21T16:49:47.106Z,16.82
2023-10-21T16:52:50.339Z,16.85
2023-10-21T16:55:53.206Z,16.89
2023-10-21T16:58:55.566Z,17.00
2023-10-21T17:01:57.461Z,16.95
2023-10-21T17:05:00.326Z,17.08
2023-10-21T17:08:02.568Z,17.11
2023-10-21T17:11:05.259Z,17.13
2023-10-21T17:14:07.287Z,17.17
2023-10-21T17:17:10.418Z,16.69
2023-10-21T17:20:12.700Z,16.52
2023-10-21T17:23:20.219Z,16.66
2023-10-21T17:26:23.281Z,16.37
2023-10-21T17:29:25.421Z,16.74
2023-10-21T17:32:27.301Z,16.83
2023-10-21T17:35:30.494Z,16.76
2023-10-21T17:38:32.848Z,16.76
2023-10-21T17:41:35.473Z,16.86
2023-10-21T17:44:37.528Z,16.98
2023-10-21T17:47:39.319Z,16.95
2023-10-21T17:50:41.906Z,16.89
2023-10-21T17:53:44.285Z,16.74
2023-10-21T17:56:47.025Z,16.76
2023-10-21T17:59:49.860Z,16.83
2023-10-21T18:02:53.538Z,16.72
2023-10-21T18:05:55.870Z,16.61
2023-10-21T18:08:58.283Z,16.54
2023-10-21T18:12:00.439Z,16.60
2023-10-21T18:15:06.675Z,16.64
2023-10-21T18:18:10.470Z,16.78
2023-10-21T18:21:14.489Z,16.74
2023-10-21T18:24:17.056Z,16.79
2023-10-21T18:27:20.351Z,16.74
2023-10-21T18:30:25.844Z,16.47
2023-10-21T18:33:28.417Z,16.52
2023-10-21T18:36:30.670Z,16.74
2023-10-21T18:39:34.683Z,16.69
2023-10-21T18:42:38.932Z,16.63
2023-10-21T18:45:41.002Z,16.58
2023-10-21T18:48:42.828Z,16.69
2023-10-21T18:51:44.616Z,16.58
2023-10-21T18:54:51.609Z,16.56
2023-10-21T18:57:53.834Z,16.64
2023-10-21T19:00:59.104Z,16.36
2023-10-21T19:04:01.409Z,16.46
2023-10-21T19:07:03.463Z,16.52
2023-10-21T19:10:05.345Z,16.44
2023-10-21T19:13:09.314Z,16.39
2023-10-21T19:16:12.606Z,16.02
2023-10-21T19:19:15.453Z,16.34
2023-10-21T19:22:18.073Z,16.24
2023-10-21T19:25:20.130Z,16.01
2023-10-21T19:28:26.011Z,15.96
2023-10-21T19:31:29.014Z,15.66
2023-10-21T19:34:31.462Z,15.96
2023-10-21T19:37:33.527Z,15.91
2023-10-21T19:40:38.022Z,16.02
2023-10-21T19:43:40.656Z,15.70
2023-10-21T19:46:44.047Z,15.45
2023-10-21T19:49:47.165Z,15.42
2023-10-21T19:52:51.512Z,15.61
2023-10-21T19:56:00.001Z,15.37
2023-10-21T19:59:02.484Z,15.33
2023-10-21T20:02:04.953Z,15.35
2023-10-21T20:05:10.325Z,15.48
2023-10-21T20:08:12.529Z,15.75
2023-10-21T20:11:15.427Z,15.81
2023-10-21T20:14:17.321Z,15.66
2023-10-21T20:17:18.913Z,15.84
2023-10-21T20:20:20.756Z,15.80
2023-10-21T20:23:22.541Z,15.65
2023-10-21T20:26:24.369Z,15.84
2023-10-21T20:29:26.091Z,15.41
2023-10-21T20:32:28.051Z,15.16
2023-10-21T20:35:35.480Z,15.23
2023-10-21T20:38:39.371Z,15.40
2023-10-21T20:41:46.301Z,15.37
2023-10-21T20:44:48.646Z,15.17
2023-10-21T20:47:50.796Z,15.07
2023-10-21T20:50:52.681Z,15.30
2023-10-21T20:53:54.257Z,15.33
2023-10-21T20:56:55.978Z,15.39
2023-10-21T20:59:57.796Z,15.56
2023-10-21T21:02:59.342Z,15.56
2023-10-21T21:06:01.818Z,15.56
2023-10-21T21:09:03.429Z,15.51
2023-10-21T21:12:05.082Z,15.48
2023-10-21T21:15:06.901Z,15.62
2023-10-21T21:18:09.017Z,15.46
2023-10-21T21:21:10.618Z,15.46
2023-10-21T21:24:12.531Z,15.57
2023-10-21T21:27:14.296Z,15.52
2023-10-21T21:30:15.992Z,15.50
2023-10-21T21:33:17.737Z,15.45
2023-10-21T21:36:19.598Z,15.37
2023-10-21T21:39:23.262Z,15.46
2023-10-21T21:42:25.077Z,15.41
2023-10-21T21:45:26.663Z,15.39
2023-10-21T21:48:28.451Z,15.43
2023-10-21T21:51:30.309Z,15.40
2023-10-21T21:54:32.056Z,15.35
2023-10-21T21:57:33.745Z,15.11
2023-10-21T22:00:48.032Z,15.09
2023-10-21T22:03:49.875Z,15.06
2023-10-21T22:06:51.655Z,15.10
2023-10-21T22:09:54.542Z,15.08
2023-10-21T22:12:56.166Z,15.03
2023-10-21T22:16:01.470Z,15.13
2023-10-21T22:19:08.211Z,15.03
2023-10-21T22:22:12.446Z,15.23
2023-10-21T22:25:16.737Z,15.35
2023-10-21T22:28:23.774Z,15.15
2023-10-21T22:31:25.375Z,15.09
2023-10-21T22:34:26.953Z,15.16
2023-10-21T22:37:28.438Z,15.11
2023-10-21T22:40:30.301Z,15.16
2023-10-21T22:43:32.631Z,15.02
2023-10-21T22:46:34.228Z,14.99
2023-10-21T22:49:35.891Z,14.95
2023-10-21T22:52:38.904Z,15.11
2023-10-21T22:55:40.499Z,14.92
2023-10-21T22:58:42.040Z,14.86
2023-10-21T23:01:43.646Z,14.98
2023-10-21T23:04:45.308Z,15.02
2023-10-21T23:07:47.040Z,15.01
2023-10-21T23:10:48.604Z,14.94
2023-10-21T23:13:50.311Z,14.95
2023-10-21T23:16:51.904Z,14.81
2023-10-21T23:19:53.515Z,14.85
2023-10-21T23:22:55.031Z,14.73
2023-10-21T23:25:56.587Z,14.66
2023-10-21T23:28:58.131Z,14.78
2023-10-21T23:32:01.216Z,14.78
2023-10-21T23:35:02.753Z,14.76
2023-10-21T23:38:06.389Z,14.75
2023-10-21T23:41:08.976Z,14.81
2023-10-21T23:44:10.589Z,14.91
2023-10-21T23:47:12.079Z,14.85
2023-10-21T23:50:15.739Z,15.10
2023-10-21T23:53:17.397Z,14.94
2023-10-21T23:56:21.503Z,14.88
2023-10-21T23:59:23.034Z,14.88
